Time;durP1;ratioP1;P1;durP2;ratioP2;P2;SDS_P1;SDS_P2;PMS_P1;PMS_P2;Temp;Humidity;BMP_temperature;BMP_pressure;BME280_temperature;BME280_humidity;BME280_pressure;Samples;Min_cycle;Max_cycle;Signal;HPM_P1;HPM_P2
2023/05/08 00:01:58;;;;;;;6.37;5.70;;;15.10;99.90;;;;;;5032656;28;20188;-78
2023/05/08 00:04:24;;;;;;;7.03;5.90;;;15.00;99.90;;;;;;5032309;28;20184;-78
2023/05/08 00:06:51;;;;;;;6.17;5.03;;;15.10;99.90;;;;;;5031834;28;20284;-78
2023/05/08 00:09:18;;;;;;;7.37;5.47;;;15.10;99.90;;;;;;5033304;28;20267;-78
2023/05/08 00:11:43;;;;;;;7.40;5.33;;;15.10;99.90;;;;;;5032636;28;20191;-78
2023/05/08 00:14:09;;;;;;;8.30;5.93;;;15.10;99.90;;;;;;5034615;28;20188;-78
2023/05/08 00:16:34;;;;;;;6.67;5.67;;;15.50;99.90;;;;;;5032307;28;20176;-78
2023/05/08 00:19:00;;;;;;;6.63;5.73;;;14.90;99.90;;;;;;5032091;28;20617;-77
2023/05/08 00:21:26;;;;;;;6.67;5.83;;;15.00;99.90;;;;;;5029729;28;20195;-77
2023/05/08 00:23:51;;;;;;;6.93;5.83;;;15.00;99.90;;;;;;5031501;28;20188;-77
2023/05/08 00:26:17;;;;;;;5.77;5.27;;;14.90;99.90;;;;;;5031213;28;20252;-78
2023/05/08 00:28:43;;;;;;;5.70;5.10;;;14.90;99.90;;;;;;5031589;28;20679;-77
2023/05/08 00:31:08;;;;;;;6.10;5.07;;;15.00;99.90;;;;;;5033337;28;20672;-78
2023/05/08 00:33:34;;;;;;;6.37;5.77;;;14.90;99.90;;;;;;5032582;28;20663;-78
2023/05/08 00:36:04;;;;;;;6.30;5.70;;;14.90;99.90;;;;;;5031249;28;20176;-79
2023/05/08 00:38:31;;;;;;;6.17;5.57;;;14.90;99.90;;;;;;5013961;28;20746;-78
2023/05/08 00:40:57;;;;;;;6.47;5.17;;;14.90;99.90;;;;;;5011788;28;20189;-78
2023/05/08 00:43:25;;;;;;;5.40;4.87;;;14.90;99.90;;;;;;5012113;28;20279;-78
2023/05/08 00:45:51;;;;;;;6.40;5.73;;;14.80;99.90;;;;;;5013027;28;20204;-78
2023/05/08 00:48:17;;;;;;;7.90;6.00;;;14.90;99.90;;;;;;5012744;28;20295;-78
2023/05/08 00:50:43;;;;;;;10.07;5.87;;;14.80;99.90;;;;;;5011580;28;20173;-78
2023/05/08 00:53:11;;;;;;;9.20;5.67;;;14.80;99.90;;;;;;5011694;28;20211;-78
2023/05/08 00:55:37;;;;;;;9.00;5.77;;;14.80;99.90;;;;;;5012067;28;20173;-78
2023/05/08 00:58:03;;;;;;;5.83;5.13;;;14.80;99.90;;;;;;5011643;28;20285;-78
2023/05/08 01:00:30;;;;;;;6.20;5.60;;;14.80;99.90;;;;;;5012787;28;20269;-78
2023/05/08 01:02:58;;;;;;;5.73;5.13;;;14.80;99.90;;;;;;5011319;28;20547;-78
2023/05/08 01:05:24;;;;;;;9.50;5.87;;;14.80;99.90;;;;;;5012720;28;20257;-77
2023/05/08 01:07:50;;;;;;;6.57;5.40;;;14.70;99.90;;;;;;5026537;28;20239;-78
2023/05/08 01:10:15;;;;;;;6.10;5.10;;;14.70;99.90;;;;;;5032700;28;20180;-77
2023/05/08 01:13:12;;;;;;;5.93;5.33;;;14.70;99.90;;;;;;5030394;28;20265;-78
2023/05/08 01:15:46;;;;;;;8.07;5.63;;;14.70;99.90;;;;;;5030800;28;20275;-77
2023/05/08 01:18:14;;;;;;;7.27;6.43;;;14.70;99.90;;;;;;5011603;28;20204;-77
2023/05/08 01:21:11;;;;;;;6.20;5.40;;;14.70;99.90;;;;;;5012033;28;20181;-78
2023/05/08 01:24:06;;;;;;;6.43;5.30;;;14.70;99.90;;;;;;5012519;28;20187;-78
2023/05/08 01:27:02;;;;;;;7.63;5.50;;;14.70;99.90;;;;;;5016335;28;20266;-78
2023/05/08 01:29:58;;;;;;;8.30;5.53;;;14.70;99.90;;;;;;5032009;28;20597;-78
2023/05/08 01:32:34;;;;;;;9.47;5.47;;;14.60;99.90;;;;;;5034522;28;20205;-78
2023/05/08 01:35:11;;;;;;;6.07;5.47;;;14.60;99.90;;;;;;5035979;28;20531;-78
2023/05/08 01:37:39;;;;;;;7.63;6.00;;;14.60;99.90;;;;;;5033212;28;20191;-77
2023/05/08 01:40:23;;;;;;;7.83;5.77;;;14.60;99.90;;;;;;5035300;28;20168;-78
2023/05/08 01:42:56;;;;;;;7.17;5.57;;;14.60;99.90;;;;;;5033110;28;20230;-78
2023/05/08 01:45:31;;;;;;;8.63;5.60;;;14.60;99.90;;;;;;5035902;28;20181;-78
2023/05/08 01:48:37;;;;;;;6.93;6.23;;;14.50;99.90;;;;;;5034647;28;20585;-78
2023/05/08 01:51:14;;;;;;;9.60;6.53;;;14.50;99.90;;;;;;5036498;28;20271;-78
2023/05/08 01:53:43;;;;;;;8.83;6.73;;;14.60;99.90;;;;;;5034318;28;20184;-78
2023/05/08 01:56:15;;;;;;;8.10;6.70;;;15.40;99.90;;;;;;5036617;28;20245;-78
2023/05/08 01:58:42;;;;;;;7.20;6.23;;;14.40;99.90;;;;;;5033928;28;20607;-78
2023/05/08 02:01:11;;;;;;;7.47;6.33;;;14.40;99.90;;;;;;5034820;28;20539;-78
2023/05/08 02:03:40;;;;;;;9.83;6.40;;;14.40;99.90;;;;;;5032781;28;20219;-78
2023/05/08 02:06:08;;;;;;;6.40;5.80;;;14.40;99.90;;;;;;5033181;28;20604;-78
2023/05/08 02:08:34;;;;;;;7.90;6.53;;;14.40;99.90;;;;;;5033984;28;20211;-78
2023/05/08 02:11:01;;;;;;;8.93;6.37;;;14.40;99.90;;;;;;5034195;28;20658;-78
2023/05/08 02:13:30;;;;;;;6.90;5.47;;;14.30;99.90;;;;;;5035177;28;20191;-78
2023/05/08 02:15:58;;;;;;;6.93;5.90;;;14.30;99.90;;;;;;5034954;28;20514;-78
2023/05/08 02:18:24;;;;;;;10.07;5.73;;;14.20;99.90;;;;;;5026497;28;20209;-78
2023/05/08 02:20:52;;;;;;;7.83;6.43;;;14.20;99.90;;;;;;5015128;28;20184;-78
2023/05/08 02:23:19;;;;;;;9.00;5.70;;;14.20;99.90;;;;;;5014150;28;20272;-78
2023/05/08 02:25:46;;;;;;;8.80;6.60;;;14.20;99.90;;;;;;5014888;28;20494;-77
2023/05/08 02:28:11;;;;;;;7.20;6.50;;;14.20;99.90;;;;;;5013600;28;20212;-78
2023/05/08 02:30:38;;;;;;;7.47;6.77;;;14.30;99.90;;;;;;5013710;28;20242;-78
2023/05/08 02:33:07;;;;;;;9.23;6.70;;;14.20;99.90;;;;;;5014856;28;20260;-77
2023/05/08 02:35:34;;;;;;;9.73;7.17;;;14.20;99.90;;;;;;5029638;28;20192;-78
2023/05/08 02:38:00;;;;;;;8.97;6.73;;;14.20;99.90;;;;;;5033642;28;20204;-78
2023/05/08 02:40:28;;;;;;;10.57;7.10;;;14.20;99.90;;;;;;5017344;28;20725;-78
2023/05/08 02:42:54;;;;;;;7.10;6.40;;;14.20;99.90;;;;;;5034617;28;20187;-78
2023/05/08 02:45:24;;;;;;;7.83;6.70;;;14.10;99.90;;;;;;5034240;28;20195;-78
2023/05/08 02:47:53;;;;;;;9.30;7.33;;;14.10;99.90;;;;;;5032701;28;20249;-78
2023/05/08 02:50:31;;;;;;;9.40;7.13;;;14.30;99.90;;;;;;5031727;28;20177;-83
2023/05/08 02:53:06;;;;;;;8.10;6.30;;;14.10;99.90;;;;;;5029574;28;20517;-78
2023/05/08 02:55:56;;;;;;;7.60;6.20;;;14.10;99.90;;;;;;5014328;28;20222;-77
2023/05/08 02:58:41;;;;;;;9.00;5.70;;;14.10;99.90;;;;;;5014986;28;20272;-78
2023/05/08 03:01:15;;;;;;;7.40;6.70;;;14.00;99.90;;;;;;5014701;28;20257;-77
2023/05/08 03:03:44;;;;;;;11.30;6.47;;;14.00;99.90;;;;;;5014040;28;20636;-78
2023/05/08 03:06:17;;;;;;;6.63;6.03;;;14.00;99.90;;;;;;5013400;28;20657;-77
2023/05/08 03:08:46;;;;;;;9.57;6.73;;;14.00;99.90;;;;;;5028262;28;20354;-78
2023/05/08 03:11:15;;;;;;;6.73;6.03;;;13.90;99.90;;;;;;5032319;28;20188;-78
2023/05/08 03:13:43;;;;;;;7.37;6.50;;;13.90;99.90;;;;;;5015907;28;20193;-78
2023/05/08 03:16:17;;;;;;;9.43;6.80;;;13.90;99.90;;;;;;5013892;28;20253;-78
2023/05/08 03:18:51;;;;;;;6.70;5.57;;;13.80;99.90;;;;;;5014685;28;20193;-78
2023/05/08 03:21:19;;;;;;;8.60;6.33;;;13.80;99.90;;;;;;5014277;28;20310;-77
2023/05/08 03:23:48;;;;;;;6.93;6.20;;;13.80;99.90;;;;;;5015106;28;20337;-80
2023/05/08 03:26:20;;;;;;;7.30;6.13;;;13.80;99.90;;;;;;5033228;28;20183;-78
2023/05/08 03:28:49;;;;;;;7.40;6.37;;;13.70;99.90;;;;;;5032484;28;20220;-78
2023/05/08 03:31:20;;;;;;;11.97;6.37;;;13.70;99.90;;;;;;5032257;28;20252;-78
2023/05/08 03:33:47;;;;;;;8.10;6.20;;;13.70;99.90;;;;;;5034267;28;20160;-78
2023/05/08 03:36:14;;;;;;;7.83;6.33;;;13.60;99.90;;;;;;5032023;28;20263;-77
2023/05/08 03:38:40;;;;;;;7.57;6.63;;;13.60;99.90;;;;;;5033276;28;20214;-78
2023/05/08 03:41:06;;;;;;;7.03;6.17;;;13.50;99.90;;;;;;5031692;28;20263;-79
2023/05/08 03:43:32;;;;;;;6.80;5.83;;;13.50;99.90;;;;;;5013355;28;20531;-78
2023/05/08 03:45:59;;;;;;;6.50;5.90;;;13.50;99.90;;;;;;5014292;28;20172;-78
2023/05/08 03:48:26;;;;;;;6.90;5.77;;;13.50;99.90;;;;;;5012918;28;20205;-78
2023/05/08 03:50:52;;;;;;;7.87;6.47;;;13.40;99.90;;;;;;5012604;28;20184;-78
2023/05/08 03:53:18;;;;;;;9.20;5.97;;;13.40;99.90;;;;;;5013407;28;20173;-78
2023/05/08 03:55:43;;;;;;;7.20;5.67;;;13.40;99.90;;;;;;5011793;28;20188;-78
2023/05/08 03:58:37;;;;;;;7.07;5.70;;;13.30;99.90;;;;;;5013002;28;20540;-78
2023/05/08 04:01:06;;;;;;;7.33;5.87;;;13.30;99.90;;;;;;5014717;28;20226;-78
2023/05/08 04:03:50;;;;;;;7.50;5.40;;;13.20;99.90;;;;;;5013811;28;20283;-78
2023/05/08 04:06:36;;;;;;;8.20;5.70;;;13.20;99.90;;;;;;5014518;28;20594;-78
2023/05/08 04:09:13;;;;;;;6.40;5.77;;;13.20;99.90;;;;;;5021757;28;20215;-78
2023/05/08 04:11:52;;;;;;;6.20;5.60;;;13.20;99.90;;;;;;5014495;28;20587;-78
2023/05/08 04:14:20;;;;;;;7.47;5.70;;;13.20;99.90;;;;;;5025766;28;20188;-78
2023/05/08 04:16:52;;;;;;;6.37;5.67;;;13.20;99.90;;;;;;5029778;28;20581;-77
2023/05/08 04:19:23;;;;;;;6.10;5.50;;;13.20;99.90;;;;;;5012176;28;20193;-78
2023/05/08 04:21:50;;;;;;;6.27;5.67;;;13.20;99.90;;;;;;5012365;28;20201;-78
2023/05/08 04:24:18;;;;;;;9.83;5.70;;;13.20;99.90;;;;;;5012760;28;20691;-78
2023/05/08 04:26:44;;;;;;;7.27;5.47;;;13.20;99.90;;;;;;5015463;28;20292;-78
2023/05/08 04:29:10;;;;;;;7.47;5.60;;;13.20;99.90;;;;;;5027562;28;20208;-78
2023/05/08 04:31:37;;;;;;;6.07;5.47;;;13.20;99.90;;;;;;5029231;28;20176;-78
2023/05/08 04:34:03;;;;;;;6.10;5.50;;;13.30;99.90;;;;;;5024697;28;20210;-77
2023/05/08 04:36:30;;;;;;;6.67;5.87;;;13.20;99.90;;;;;;5014779;28;20177;-77
2023/05/08 04:38:56;;;;;;;7.10;5.43;;;13.30;99.90;;;;;;5010581;28;20668;-77
2023/05/08 04:41:21;;;;;;;9.70;6.30;;;13.20;99.90;;;;;;5025185;28;20187;-77
2023/05/08 04:43:47;;;;;;;7.87;6.27;;;13.40;99.90;;;;;;5010436;28;20165;-77
2023/05/08 04:46:13;;;;;;;6.70;5.87;;;13.40;99.90;;;;;;5010690;28;20187;-77
2023/05/08 04:48:38;;;;;;;10.20;5.57;;;13.40;99.90;;;;;;5008633;28;20212;-76
2023/05/08 04:51:04;;;;;;;6.57;5.30;;;13.40;99.90;;;;;;5009454;28;20556;-76
2023/05/08 04:53:30;;;;;;;5.97;5.03;;;13.50;99.90;;;;;;5010378;28;20237;-76
2023/05/08 04:55:56;;;;;;;7.17;6.30;;;13.50;99.90;;;;;;5010054;28;20173;-77
2023/05/08 04:58:22;;;;;;;6.33;5.17;;;13.50;99.90;;;;;;5030341;28;20280;-78
2023/05/08 05:00:47;;;;;;;6.23;5.63;;;13.50;99.90;;;;;;5030728;28;20204;-78
2023/05/08 05:03:13;;;;;;;7.67;5.70;;;13.60;99.90;;;;;;5025656;28;20229;-79
2023/05/08 05:05:38;;;;;;;6.20;5.53;;;13.60;99.90;;;;;;5035797;28;20215;-78
2023/05/08 05:08:04;;;;;;;6.83;6.13;;;13.60;99.90;;;;;;5036231;28;20257;-78
2023/05/08 05:10:30;;;;;;;6.67;5.97;;;13.70;99.90;;;;;;5029344;28;20172;-77
2023/05/08 05:12:55;;;;;;;8.87;5.67;;;13.70;99.90;;;;;;5029710;28;20299;-76
2023/05/08 05:15:21;;;;;;;7.73;5.57;;;13.70;99.90;;;;;;5028315;28;20187;-77
2023/05/08 05:17:47;;;;;;;6.37;5.70;;;13.80;99.90;;;;;;5014882;28;20209;-76
2023/05/08 05:20:13;;;;;;;7.20;5.60;;;13.80;99.90;;;;;;5008211;28;20272;-77
2023/05/08 05:22:39;;;;;;;6.57;5.83;;;13.80;99.90;;;;;;5009825;28;20176;-77
2023/05/08 05:25:05;;;;;;;7.80;6.00;;;13.90;99.90;;;;;;5008187;28;20173;-77
2023/05/08 05:27:34;;;;;;;7.27;5.83;;;13.90;99.90;;;;;;5013526;28;20283;-77
2023/05/08 05:30:00;;;;;;;8.63;6.63;;;13.90;99.90;;;;;;5029313;28;20180;-77
2023/05/08 05:32:26;;;;;;;6.63;5.97;;;14.00;99.90;;;;;;5029029;28;20577;-77
2023/05/08 05:34:52;;;;;;;8.17;6.33;;;14.00;99.90;;;;;;5029145;28;20168;-77
2023/05/08 05:37:18;;;;;;;9.83;7.30;;;14.10;99.90;;;;;;5027807;28;20644;-77
2023/05/08 05:39:44;;;;;;;8.23;7.30;;;14.10;99.90;;;;;;5028873;28;20220;-77
2023/05/08 05:42:09;;;;;;;10.47;7.50;;;14.10;99.90;;;;;;5027706;28;20687;-77
2023/05/08 05:44:36;;;;;;;8.60;7.47;;;14.20;99.90;;;;;;5029325;28;20169;-77
2023/05/08 05:47:03;;;;;;;9.87;7.97;;;14.30;99.90;;;;;;5027698;28;20208;-77
2023/05/08 05:49:29;;;;;;;9.27;8.27;;;14.30;99.90;;;;;;5027529;28;20291;-77
2023/05/08 05:51:55;;;;;;;12.73;8.40;;;14.30;99.90;;;;;;5027672;28;20657;-77
2023/05/08 05:54:21;;;;;;;9.43;7.67;;;14.40;99.90;;;;;;5028984;28;20184;-77
2023/05/08 05:56:47;;;;;;;12.10;8.27;;;14.50;99.90;;;;;;5027590;28;20275;-77
2023/05/08 05:59:12;;;;;;;8.80;7.90;;;14.50;99.90;;;;;;5028910;28;20225;-77
2023/05/08 06:01:38;;;;;;;11.10;7.63;;;14.60;99.90;;;;;;5028853;28;20547;-77
2023/05/08 06:04:03;;;;;;;10.07;8.10;;;14.60;99.90;;;;;;5027421;28;20701;-77
2023/05/08 06:06:30;;;;;;;10.33;9.00;;;14.60;99.90;;;;;;5029239;28;20191;-77
2023/05/08 06:08:56;;;;;;;10.43;7.47;;;14.70;99.90;;;;;;5028808;28;20195;-77
2023/05/08 06:11:22;;;;;;;9.70;8.70;;;14.70;99.90;;;;;;5028563;28;20611;-77
2023/05/08 06:13:47;;;;;;;8.77;7.87;;;14.80;99.90;;;;;;5027301;28;20196;-77
2023/05/08 06:16:14;;;;;;;10.33;8.50;;;14.90;99.90;;;;;;5027391;28;20196;-77
2023/05/08 06:18:40;;;;;;;9.57;8.53;;;14.90;99.90;;;;;;5030474;28;20231;-77
2023/05/08 06:21:05;;;;;;;10.23;8.37;;;14.90;99.90;;;;;;5030732;28;20639;-78
2023/05/08 06:23:31;;;;;;;8.77;7.87;;;15.00;99.90;;;;;;5031975;28;20183;-77
2023/05/08 06:25:56;;;;;;;9.57;8.57;;;15.10;99.90;;;;;;5030737;28;20267;-77
2023/05/08 06:28:24;;;;;;;10.13;8.47;;;15.10;99.90;;;;;;5031866;28;20212;-77
2023/05/08 06:30:50;;;;;;;11.77;8.90;;;15.10;99.90;;;;;;5031770;28;20214;-77
2023/05/08 06:33:16;;;;;;;9.97;8.37;;;15.20;99.90;;;;;;5031842;28;20165;-77
2023/05/08 06:35:46;;;;;;;9.47;8.40;;;15.20;99.90;;;;;;5030474;28;20168;-77
2023/05/08 06:38:12;;;;;;;9.60;8.60;;;15.20;99.90;;;;;;5032136;28;20608;-77
2023/05/08 06:40:41;;;;;;;9.40;8.40;;;15.20;99.90;;;;;;5030548;28;20176;-78
2023/05/08 06:43:07;;;;;;;10.33;7.70;;;15.20;99.90;;;;;;5031799;28;20172;-77
2023/05/08 06:45:32;;;;;;;9.00;8.10;;;15.20;99.90;;;;;;5031634;28;20173;-77
2023/05/08 06:47:57;;;;;;;9.27;8.00;;;15.40;99.90;;;;;;5031447;28;20214;-77
2023/05/08 06:50:23;;;;;;;8.30;7.43;;;15.40;99.90;;;;;;5031627;28;20180;-78
2023/05/08 06:52:49;;;;;;;8.33;7.43;;;15.50;99.90;;;;;;5030307;28;20183;-77
2023/05/08 06:55:14;;;;;;;8.47;6.93;;;15.50;99.90;;;;;;5031476;28;20542;-78
2023/05/08 06:57:40;;;;;;;7.90;7.10;;;15.60;99.90;;;;;;5031789;28;20172;-78
2023/05/08 07:00:06;;;;;;;7.93;7.13;;;15.60;99.90;;;;;;5029986;28;20551;-77
2023/05/08 07:02:32;;;;;;;10.57;6.37;;;15.70;99.90;;;;;;5031675;28;20170;-78
2023/05/08 07:04:57;;;;;;;8.20;7.40;;;15.80;99.90;;;;;;5029998;28;20179;-78
2023/05/08 07:07:23;;;;;;;7.60;6.63;;;15.80;99.90;;;;;;5031426;28;20668;-78
2023/05/08 07:09:48;;;;;;;7.17;6.47;;;15.80;99.90;;;;;;5031164;28;20185;-78
2023/05/08 07:12:15;;;;;;;7.77;6.97;;;15.80;99.90;;;;;;5029904;28;20260;-77
2023/05/08 07:14:42;;;;;;;8.37;6.70;;;15.80;99.90;;;;;;5029846;28;20176;-78
2023/05/08 07:17:08;;;;;;;7.37;6.57;;;15.80;99.90;;;;;;5031046;28;20165;-79
2023/05/08 07:19:37;;;;;;;7.83;6.63;;;15.80;99.90;;;;;;5031020;28;20193;-78
2023/05/08 07:22:03;;;;;;;8.07;6.77;;;15.80;99.90;;;;;;5031249;28;20175;-77
2023/05/08 07:24:28;;;;;;;7.33;6.60;;;15.80;99.90;;;;;;5029569;28;20178;-77
2023/05/08 07:26:54;;;;;;;7.23;6.50;;;15.80;99.90;;;;;;5029722;28;20283;-78
2023/05/08 07:29:20;;;;;;;8.00;6.90;;;15.80;99.90;;;;;;5028196;28;20215;-77
2023/05/08 07:31:47;;;;;;;13.20;7.70;;;15.90;99.90;;;;;;5030883;28;20267;-78
2023/05/08 07:34:13;;;;;;;10.50;7.63;;;15.80;99.90;;;;;;5029502;28;20196;-78
2023/05/08 07:36:39;;;;;;;8.50;7.30;;;16.00;99.90;;;;;;5030966;28;20215;-78
2023/05/08 07:39:04;;;;;;;8.10;7.30;;;16.00;99.90;;;;;;5030645;28;20188;-78
2023/05/08 07:41:30;;;;;;;9.97;7.67;;;16.10;99.90;;;;;;5030668;28;20247;-78
2023/05/08 07:43:56;;;;;;;9.47;8.27;;;16.20;99.90;;;;;;5030883;28;20168;-78
2023/05/08 07:46:21;;;;;;;8.57;7.67;;;16.20;99.90;;;;;;5030754;28;20221;-78
2023/05/08 07:48:47;;;;;;;9.90;7.93;;;16.30;99.90;;;;;;5031022;28;20208;-78
2023/05/08 07:51:14;;;;;;;8.63;7.60;;;16.40;99.90;;;;;;5030702;28;20167;-77
2023/05/08 07:53:39;;;;;;;8.37;7.33;;;16.40;99.90;;;;;;5029431;28;20199;-78
2023/05/08 07:56:05;;;;;;;8.70;7.47;;;16.40;99.90;;;;;;5030980;28;20636;-78
2023/05/08 07:58:31;;;;;;;7.57;6.63;;;16.40;99.90;;;;;;5031221;28;20196;-78
2023/05/08 08:00:56;;;;;;;7.63;6.83;;;16.40;99.90;;;;;;5029341;28;20183;-78
2023/05/08 08:03:22;;;;;;;11.77;8.30;;;16.30;99.90;;;;;;5030792;28;20172;-78
2023/05/08 08:05:47;;;;;;;9.17;7.50;;;16.40;99.90;;;;;;5029165;28;20619;-78
2023/05/08 08:08:13;;;;;;;8.57;6.93;;;16.40;99.90;;;;;;5030499;28;20207;-78
2023/05/08 08:10:38;;;;;;;10.07;8.33;;;16.50;99.90;;;;;;5029649;28;20196;-78
2023/05/08 08:13:05;;;;;;;10.17;8.37;;;16.50;99.90;;;;;;5030466;28;20192;-78
2023/05/08 08:15:31;;;;;;;13.90;9.10;;;16.50;99.90;;;;;;5030684;28;20165;-78
2023/05/08 08:17:56;;;;;;;13.27;8.20;;;16.60;99.90;;;;;;5029426;28;20581;-78
2023/05/08 08:20:22;;;;;;;13.80;8.10;;;16.70;99.90;;;;;;5030850;28;20560;-78
2023/05/08 08:22:47;;;;;;;9.57;8.23;;;16.90;99.90;;;;;;5029308;28;20177;-78
2023/05/08 08:25:13;;;;;;;11.17;8.30;;;17.00;99.90;;;;;;5029301;28;20201;-79
2023/05/08 08:27:39;;;;;;;9.23;8.20;;;17.20;99.90;;;;;;5029071;28;20243;-79
2023/05/08 08:30:05;;;;;;;12.83;8.17;;;17.40;99.90;;;;;;5030933;28;20179;-78
2023/05/08 08:32:30;;;;;;;8.30;7.40;;;17.60;99.90;;;;;;5030522;28;20172;-78
2023/05/08 08:34:56;;;;;;;8.00;7.13;;;17.70;99.90;;;;;;5030560;28;20173;-79
2023/05/08 08:37:22;;;;;;;7.87;7.07;;;17.70;99.90;;;;;;5029266;28;20176;-79
2023/05/08 08:39:47;;;;;;;7.77;6.83;;;17.80;99.90;;;;;;5030330;28;20690;-79
2023/05/08 08:42:13;;;;;;;7.00;6.17;;;17.80;99.90;;;;;;5030147;28;20181;-78
2023/05/08 08:44:39;;;;;;;6.77;6.07;;;17.80;99.90;;;;;;5029529;28;20176;-78
2023/05/08 08:47:06;;;;;;;7.27;6.40;;;17.80;99.90;;;;;;5030799;28;20226;-79
2023/05/08 08:49:35;;;;;;;8.50;5.80;;;17.90;99.90;;;;;;5030625;28;20271;-78
2023/05/08 08:52:17;;;;;;;4.87;4.37;;;17.90;99.90;;;;;;5029457;28;20173;-79
2023/05/08 08:54:45;;;;;;;4.43;3.70;;;17.90;99.90;;;;;;5029896;28;20164;-78
2023/05/08 08:57:11;;;;;;;5.33;3.97;;;17.90;99.90;;;;;;5032055;28;20187;-78
2023/05/08 08:59:39;;;;;;;4.13;3.77;;;18.00;99.90;;;;;;5029888;28;20200;-78
2023/05/08 09:02:16;;;;;;;3.93;3.53;;;18.00;99.90;;;;;;5030954;28;20677;-79
2023/05/08 09:04:42;;;;;;;3.67;3.37;;;18.10;99.90;;;;;;5030385;28;20156;-78
2023/05/08 09:07:08;;;;;;;6.40;3.50;;;18.20;99.90;;;;;;5030560;28;20195;-78
2023/05/08 09:09:43;;;;;;;3.30;2.93;;;18.30;99.90;;;;;;5028629;28;20306;-79
2023/05/08 09:12:09;;;;;;;5.53;3.60;;;18.40;99.90;;;;;;5030191;28;20258;-79
2023/05/08 09:14:35;;;;;;;2.57;2.30;;;18.50;99.90;;;;;;5030272;28;20195;-78
2023/05/08 09:17:01;;;;;;;2.03;1.83;;;18.50;99.90;;;;;;5030242;28;20179;-78
2023/05/08 09:19:27;;;;;;;2.03;1.83;;;18.50;99.90;;;;;;5029040;28;20298;-78
2023/05/08 09:21:53;;;;;;;3.13;2.17;;;18.60;99.90;;;;;;5030570;28;20188;-78
2023/05/08 09:24:19;;;;;;;2.30;2.10;;;18.60;99.90;;;;;;5028409;28;20671;-78
2023/05/08 09:26:45;;;;;;;2.43;2.03;;;18.60;99.90;;;;;;5030048;28;20172;-78
2023/05/08 09:29:18;;;;;;;3.17;2.87;;;18.60;99.90;;;;;;5030210;28;20302;-78
2023/05/08 09:31:49;;;;;;;4.20;3.67;;;18.60;99.90;;;;;;5030220;28;20155;-78
2023/05/08 09:34:28;;;;;;;3.27;2.90;;;18.60;99.90;;;;;;5030469;28;20641;-79
2023/05/08 09:37:14;;;;;;;3.40;3.00;;;18.60;99.90;;;;;;5030238;28;20161;-78
2023/05/08 09:39:42;;;;;;;3.50;3.20;;;18.70;99.90;;;;;;5030330;28;20257;-78
2023/05/08 09:42:08;;;;;;;3.27;2.97;;;18.70;99.90;;;;;;5030314;28;20169;-78
2023/05/08 09:44:52;;;;;;;3.03;2.70;;;18.70;99.90;;;;;;5030607;28;20223;-79
2023/05/08 09:47:20;;;;;;;3.27;2.90;;;18.80;99.90;;;;;;5028920;28;20221;-79
2023/05/08 09:50:00;;;;;;;5.10;3.90;;;18.80;99.90;;;;;;5028776;28;20196;-79
2023/05/08 09:52:30;;;;;;;4.17;3.70;;;18.90;99.90;;;;;;5030698;28;20647;-79
2023/05/08 09:55:01;;;;;;;6.17;3.97;;;19.00;99.90;;;;;;5033866;28;20251;-79
2023/05/08 09:57:27;;;;;;;4.90;4.30;;;18.90;99.90;;;;;;5032189;28;20172;-78
2023/05/08 10:00:08;;;;;;;5.13;4.63;;;18.90;99.90;;;;;;5033661;28;20341;-78
2023/05/08 10:02:35;;;;;;;5.17;4.67;;;18.80;99.90;;;;;;5032580;28;20183;-79
2023/05/08 10:05:03;;;;;;;4.83;4.30;;;18.80;99.90;;;;;;5033695;28;20255;-79
2023/05/08 10:07:33;;;;;;;4.53;4.13;;;18.80;99.90;;;;;;5033473;28;20207;-78
2023/05/08 10:10:00;;;;;;;5.67;4.57;;;18.80;99.90;;;;;;5034324;28;20523;-79
2023/05/08 10:12:27;;;;;;;5.10;4.60;;;18.80;99.90;;;;;;5033527;28;20184;-78
2023/05/08 10:14:52;;;;;;;5.00;4.50;;;18.80;99.90;;;;;;5033883;28;20196;-79
2023/05/08 10:17:35;;;;;;;6.27;4.80;;;18.70;99.90;;;;;;5033437;28;20260;-79
2023/05/08 10:20:05;;;;;;;4.60;4.20;;;18.70;99.90;;;;;;5033461;28;20184;-79
2023/05/08 10:22:34;;;;;;;4.10;3.70;;;18.60;99.90;;;;;;5033549;28;20176;-79
2023/05/08 10:25:02;;;;;;;5.67;3.70;;;18.60;99.90;;;;;;5033850;28;20671;-79
2023/05/08 10:27:43;;;;;;;6.93;4.40;;;18.70;99.90;;;;;;5031720;28;20212;-79
2023/05/08 10:30:13;;;;;;;5.47;4.50;;;18.80;99.90;;;;;;5033081;28;20179;-79
2023/05/08 10:32:43;;;;;;;4.57;3.80;;;18.70;99.90;;;;;;5032227;28;20185;-79
2023/05/08 10:35:10;;;;;;;4.50;3.93;;;18.70;99.90;;;;;;5032313;28;20177;-79
2023/05/08 10:37:37;;;;;;;4.70;3.93;;;18.80;99.90;;;;;;5033327;28;20654;-79
2023/05/08 10:40:04;;;;;;;5.30;4.13;;;18.70;99.90;;;;;;5031805;28;20184;-79
2023/05/08 10:42:32;;;;;;;4.63;3.67;;;18.70;99.90;;;;;;5033126;28;20184;-79
2023/05/08 10:44:58;;;;;;;4.30;3.90;;;18.80;99.90;;;;;;5033526;28;20195;-78
2023/05/08 10:47:56;;;;;;;4.43;3.83;;;18.90;99.90;;;;;;5033252;28;20210;-79
2023/05/08 10:50:46;;;;;;;4.80;3.90;;;18.90;99.90;;;;;;5033043;28;20192;-79
2023/05/08 10:53:28;;;;;;;4.07;3.70;;;18.90;99.90;;;;;;5034102;28;20612;-78
2023/05/08 10:55:54;;;;;;;4.50;4.10;;;19.00;99.90;;;;;;5033281;28;20153;-79
2023/05/08 10:58:30;;;;;;;4.93;4.00;;;19.00;99.90;;;;;;5031768;28;20215;-79
2023/05/08 11:00:58;;;;;;;5.70;3.60;;;19.10;99.90;;;;;;5033233;28;20164;-79
2023/05/08 11:03:25;;;;;;;4.47;3.50;;;19.20;99.90;;;;;;5031205;28;20261;-79
2023/05/08 11:05:52;;;;;;;7.37;3.90;;;19.30;99.90;;;;;;5033268;28;20191;-79
2023/05/08 11:08:23;;;;;;;5.10;4.60;;;19.40;99.90;;;;;;5031529;28;20216;-79
2023/05/08 11:11:13;;;;;;;6.07;5.17;;;19.40;99.90;;;;;;5032962;28;20149;-79
2023/05/08 11:13:52;;;;;;;6.07;5.43;;;19.40;99.90;;;;;;5037364;28;20204;-79
2023/05/08 11:16:37;;;;;;;6.40;5.80;;;19.40;99.90;;;;;;5033353;28;20517;-79
2023/05/08 11:19:25;;;;;;;5.40;4.90;;;19.40;99.90;;;;;;5032577;28;20206;-79
2023/05/08 11:22:11;;;;;;;6.57;5.90;;;19.50;99.90;;;;;;5033343;28;20149;-79
2023/05/08 11:24:38;;;;;;;6.27;5.67;;;19.50;99.90;;;;;;5031788;28;20206;-79
2023/05/08 11:27:04;;;;;;;8.07;5.67;;;19.60;99.90;;;;;;5031965;28;20200;-79
2023/05/08 11:29:29;;;;;;;6.23;5.63;;;19.70;99.90;;;;;;5034742;28;20200;-79
2023/05/08 11:31:55;;;;;;;6.30;5.40;;;19.70;99.90;;;;;;5033428;28;20642;-80
2023/05/08 11:34:43;;;;;;;6.03;5.43;;;19.80;99.90;;;;;;5032700;28;20594;-79
2023/05/08 11:37:20;;;;;;;5.67;4.80;;;19.80;1.00;;;;;;5031316;28;20180;-79
2023/05/08 11:39:47;;;;;;;4.47;4.07;;;19.90;1.00;;;;;;5032813;28;20212;-79
2023/05/08 11:42:25;;;;;;;4.73;4.00;;;20.00;1.00;;;;;;5031671;28;20183;-79
2023/05/08 11:45:14;;;;;;;3.67;3.37;;;19.90;99.90;;;;;;5032982;28;20647;-79
2023/05/08 11:47:42;;;;;;;4.47;3.87;;;20.10;99.90;;;;;;5032075;28;20662;-79
2023/05/08 11:50:09;;;;;;;3.77;2.93;;;20.00;99.90;;;;;;5031040;28;20176;-80
2023/05/08 11:52:37;;;;;;;4.20;3.60;;;20.00;1.00;;;;;;5031340;28;20173;-79
2023/05/08 11:55:08;;;;;;;6.63;3.60;;;20.10;1.00;;;;;;5031047;28;20176;-79
2023/05/08 11:57:34;;;;;;;6.33;3.40;;;20.20;1.00;;;;;;5030992;28;20260;-80
2023/05/08 12:00:06;;;;;;;3.87;3.13;;;20.30;99.90;;;;;;5032726;28;20208;-80
2023/05/08 12:02:37;;;;;;;3.97;3.40;;;20.40;14.30;;;;;;5032006;28;20180;-79
2023/05/08 12:05:02;;;;;;;3.77;3.27;;;20.40;1.00;;;;;;5031490;28;20591;-79
2023/05/08 12:07:28;;;;;;;5.23;3.30;;;20.50;1.00;;;;;;5032621;28;20270;-79
2023/05/08 12:09:54;;;;;;;4.43;3.30;;;20.50;1.00;;;;;;5030924;28;20223;-80
2023/05/08 12:12:19;;;;;;;4.93;3.17;;;20.60;1.00;;;;;;5031905;28;20207;-79
2023/05/08 12:14:50;;;;;;;3.70;3.40;;;20.50;1.00;;;;;;5032312;28;20233;-79
2023/05/08 12:17:18;;;;;;;4.13;3.07;;;20.50;99.80;;;;;;5031086;28;20169;-79
2023/05/08 12:19:44;;;;;;;3.20;2.90;;;20.60;1.00;;;;;;5032704;28;20185;-79
2023/05/08 12:22:09;;;;;;;4.27;2.80;;;20.60;1.00;;;;;;5031030;28;20183;-79
2023/05/08 12:24:35;;;;;;;4.90;2.60;;;20.60;1.00;;;;;;5032573;28;20176;-79
2023/05/08 12:27:02;;;;;;;4.83;2.80;;;20.60;99.90;;;;;;5031996;28;20566;-79
2023/05/08 12:29:27;;;;;;;3.67;2.53;;;20.60;99.90;;;;;;5031233;28;20184;-79
2023/05/08 12:31:53;;;;;;;4.60;3.10;;;20.60;99.90;;;;;;5032237;28;20233;-79
2023/05/08 12:34:19;;;;;;;5.20;2.67;;;20.60;1.00;;;;;;5031647;28;20172;-79
2023/05/08 12:36:45;;;;;;;2.80;2.50;;;20.60;1.00;;;;;;5031773;28;20207;-79
2023/05/08 12:39:12;;;;;;;4.20;2.70;;;20.60;99.90;;;;;;5032019;28;20713;-79
2023/05/08 12:41:48;;;;;;;2.00;1.87;;;20.50;93.10;;;;;;5030802;28;20176;-79
2023/05/08 12:44:24;;;;;;;2.90;2.50;;;20.60;99.90;;;;;;5032142;28;20176;-80
2023/05/08 12:46:52;;;;;;;4.23;2.73;;;20.60;99.90;;;;;;5031758;28;20188;-79
2023/05/08 12:49:31;;;;;;;2.43;2.20;;;20.80;1.00;;;;;;5031836;28;20184;-80
2023/05/08 12:52:05;;;;;;;2.80;2.20;;;20.70;1.00;;;;;;5031728;28;20703;-79
2023/05/08 12:54:42;;;;;;;2.83;2.13;;;20.70;1.00;;;;;;5031968;28;20612;-79
2023/05/08 12:57:09;;;;;;;3.00;2.33;;;20.80;1.00;;;;;;5030865;28;20239;-79